MAH224 LHBP-LCLK
Flight info
| Callsign | MAH224 |
|---|---|
| Flight time | N/A |
| Altitude | 39000 |
| Route | FAHAZ DCT KEROP DCT DONIV DCT NISVA N131 RODIP UN131 KULAR UT39 TOMBI M855 DASNI M601 BONEK |
| Aircraft | B737/M-SDE2E3FGHIRWXY/LB1 |
Departure
| Time | 2026-05-05 17:13 |
|---|---|
| Airport | Budapest Liszt Ferenc International Airport (LHBP) |
Arrival
| Time | N/A |
|---|---|
| Airport | Larnaca International Airport (LCLK) |
| Time | Latitude | Longitude | Altitude | Speed | Heading |
|---|---|---|---|---|---|
| 2026-05-05 15:51 | 47.43413 | 19.26131 | 456 ft | 0 kts | 132° |
| 2026-05-05 16:59 | 47.43417 | 19.26126 | 456 ft | 4 kts | 133° |
| 2026-05-05 16:59 | 47.43436 | 19.26098 | 455 ft | 4 kts | 139° |
| 2026-05-05 16:59 | 47.43457 | 19.26074 | 456 ft | 4 kts | 150° |
| 2026-05-05 17:00 | 47.43481 | 19.26062 | 456 ft | 4 kts | 193° |
| 2026-05-05 17:00 | 47.43492 | 19.26070 | 456 ft | 1 kts | 222° |
| 2026-05-05 17:00 | 47.43493 | 19.26072 | 456 ft | 0 kts | 222° |
| 2026-05-05 17:03 | 47.43492 | 19.26069 | 456 ft | 1 kts | 222° |
| 2026-05-05 17:04 | 47.43478 | 19.26051 | 455 ft | 4 kts | 222° |
| 2026-05-05 17:04 | 47.43454 | 19.26020 | 456 ft | 5 kts | 222° |
| 2026-05-05 17:04 | 47.43440 | 19.25976 | 456 ft | 5 kts | 260° |
| 2026-05-05 17:04 | 47.43448 | 19.25922 | 455 ft | 6 kts | 292° |
| 2026-05-05 17:05 | 47.43470 | 19.25864 | 456 ft | 7 kts | 306° |
| 2026-05-05 17:05 | 47.43497 | 19.25810 | 456 ft | 7 kts | 306° |
| 2026-05-05 17:05 | 47.43524 | 19.25756 | 456 ft | 6 kts | 307° |
| 2026-05-05 17:05 | 47.43558 | 19.25717 | 456 ft | 6 kts | 344° |
| 2026-05-05 17:06 | 47.43599 | 19.25731 | 456 ft | 6 kts | 31° |
| 2026-05-05 17:06 | 47.43632 | 19.25772 | 456 ft | 6 kts | 47° |
| 2026-05-05 17:06 | 47.43661 | 19.25814 | 455 ft | 6 kts | 43° |
| 2026-05-05 17:06 | 47.43691 | 19.25856 | 456 ft | 6 kts | 43° |
| 2026-05-05 17:07 | 47.43722 | 19.25895 | 456 ft | 6 kts | 40° |
| 2026-05-05 17:07 | 47.43753 | 19.25932 | 455 ft | 6 kts | 39° |
| 2026-05-05 17:07 | 47.43783 | 19.25968 | 455 ft | 6 kts | 39° |
| 2026-05-05 17:07 | 47.43813 | 19.26004 | 456 ft | 5 kts | 43° |
| 2026-05-05 17:08 | 47.43837 | 19.26046 | 456 ft | 5 kts | 50° |
| 2026-05-05 17:08 | 47.43863 | 19.26086 | 457 ft | 5 kts | 43° |
| 2026-05-05 17:08 | 47.43892 | 19.26119 | 457 ft | 5 kts | 35° |
| 2026-05-05 17:08 | 47.43919 | 19.26154 | 457 ft | 5 kts | 44° |
| 2026-05-05 17:09 | 47.43945 | 19.26190 | 457 ft | 5 kts | 44° |
| 2026-05-05 17:09 | 47.43972 | 19.26228 | 458 ft | 5 kts | 42° |
| 2026-05-05 17:09 | 47.44000 | 19.26265 | 458 ft | 5 kts | 42° |
| 2026-05-05 17:09 | 47.44027 | 19.26302 | 460 ft | 6 kts | 45° |
| 2026-05-05 17:10 | 47.44051 | 19.26349 | 464 ft | 6 kts | 57° |
| 2026-05-05 17:10 | 47.44066 | 19.26403 | 466 ft | 6 kts | 74° |
| 2026-05-05 17:10 | 47.44070 | 19.26459 | 470 ft | 6 kts | 92° |
| 2026-05-05 17:10 | 47.44057 | 19.26530 | 467 ft | 9 kts | 116° |
| 2026-05-05 17:11 | 47.44035 | 19.26578 | 468 ft | 0 kts | 130° |
| 2026-05-05 17:11 | 47.44030 | 19.26587 | 468 ft | 0 kts | 130° |
| 2026-05-05 17:12 | 47.43970 | 19.26685 | 469 ft | 42 kts | 132° |
| 2026-05-05 17:12 | 47.43536 | 19.27345 | 472 ft | 136 kts | 139° |
| 2026-05-05 17:13 | 47.42691 | 19.28431 | 1049 ft | 167 kts | 142° |
| 2026-05-05 17:13 | 47.41815 | 19.29520 | 2331 ft | 161 kts | 145° |
| 2026-05-05 17:13 | 47.40922 | 19.30491 | 3491 ft | 165 kts | 150° |
| 2026-05-05 17:13 | 47.39843 | 19.31400 | 4138 ft | 195 kts | 158° |
| 2026-05-05 17:14 | 47.38451 | 19.32230 | 4139 ft | 243 kts | 163° |
| 2026-05-05 17:14 | 47.36584 | 19.33090 | 3378 ft | 319 kts | 166° |
| 2026-05-05 17:14 | 47.34255 | 19.33997 | 3288 ft | 361 kts | 167° |
| 2026-05-05 17:14 | 47.31895 | 19.34809 | 5161 ft | 324 kts | 169° |
| 2026-05-05 17:15 | 47.29901 | 19.35430 | 7899 ft | 264 kts | 170° |
| 2026-05-05 17:15 | 47.28221 | 19.35904 | 9879 ft | 240 kts | 171° |
| 2026-05-05 17:15 | 47.26499 | 19.36340 | 10250 ft | 269 kts | 172° |
| 2026-05-05 17:15 | 47.24510 | 19.36797 | 9146 ft | 308 kts | 172° |
| 2026-05-05 17:16 | 47.22275 | 19.37254 | 8233 ft | 322 kts | 175° |
| 2026-05-05 17:16 | 47.20349 | 19.37456 | 9752 ft | 246 kts | 179° |
| 2026-05-05 17:16 | 47.19782 | 19.37485 | 9899 ft | 237 kts | 179° |
| 2026-05-05 17:16 | 47.18588 | 19.37483 | 9960 ft | 221 kts | 184° |
| 2026-05-05 17:17 | 47.17127 | 19.37284 | 10654 ft | 209 kts | 190° |
| 2026-05-05 17:17 | 47.15671 | 19.36808 | 11303 ft | 216 kts | 197° |
| 2026-05-05 17:17 | 47.14273 | 19.36112 | 12203 ft | 211 kts | 201° |
| 2026-05-05 17:17 | 47.12806 | 19.35208 | 12189 ft | 253 kts | 204° |
| 2026-05-05 17:18 | 47.11079 | 19.34021 | 12023 ft | 296 kts | 206° |
| 2026-05-05 17:18 | 47.09230 | 19.32659 | 13075 ft | 287 kts | 207° |
| 2026-05-05 17:18 | 47.07521 | 19.31336 | 14443 ft | 272 kts | 208° |
| 2026-05-05 17:18 | 47.05865 | 19.30017 | 15282 ft | 275 kts | 208° |
| 2026-05-05 17:19 | 47.04142 | 19.28615 | 15716 ft | 292 kts | 209° |
| 2026-05-05 17:19 | 47.02324 | 19.27118 | 16195 ft | 308 kts | 210° |